sensor_id;sensor_type;location;lat;lon;timestamp;pressure;altitude;pressure_sealevel;temperature;humidity
56400;BME280;42298;53.638;9.876;2023-04-04T00:01:50;103024.56;;;3.32;56.61
56400;BME280;42298;53.638;9.876;2023-04-04T00:04:16;103025.38;;;3.26;56.21
56400;BME280;42298;53.638;9.876;2023-04-04T00:06:41;103015.31;;;3.20;56.52
56400;BME280;42298;53.638;9.876;2023-04-04T00:09:10;103021.16;;;3.17;56.61
56400;BME280;42298;53.638;9.876;2023-04-04T00:11:38;103008.56;;;3.09;56.94
56400;BME280;42298;53.638;9.876;2023-04-04T00:14:05;103010.88;;;3.19;58.56
56400;BME280;42298;53.638;9.876;2023-04-04T00:16:30;102985.94;;;3.09;57.65
56400;BME280;42298;53.638;9.876;2023-04-04T00:18:55;102997.50;;;3.24;58.22
56400;BME280;42298;53.638;9.876;2023-04-04T00:21:20;103009.44;;;3.29;57.57
56400;BME280;42298;53.638;9.876;2023-04-04T00:23:47;103002.56;;;3.33;57.62
56400;BME280;42298;53.638;9.876;2023-04-04T00:26:13;102995.63;;;3.24;56.31
56400;BME280;42298;53.638;9.876;2023-04-04T00:28:38;103006.72;;;3.23;56.07
56400;BME280;42298;53.638;9.876;2023-04-04T00:31:03;102991.19;;;3.10;55.80
56400;BME280;42298;53.638;9.876;2023-04-04T00:33:29;102965.38;;;2.87;56.19
56400;BME280;42298;53.638;9.876;2023-04-04T00:35:54;102992.63;;;3.00;56.83
56400;BME280;42298;53.638;9.876;2023-04-04T00:38:21;102996.41;;;2.99;57.28
56400;BME280;42298;53.638;9.876;2023-04-04T00:40:48;102997.25;;;3.06;58.18
56400;BME280;42298;53.638;9.876;2023-04-04T00:43:15;102983.44;;;3.07;58.16
56400;BME280;42298;53.638;9.876;2023-04-04T00:45:41;102975.88;;;3.03;58.46
56400;BME280;42298;53.638;9.876;2023-04-04T00:48:07;103002.09;;;3.17;56.87
56400;BME280;42298;53.638;9.876;2023-04-04T00:50:32;102984.91;;;3.03;56.54
56400;BME280;42298;53.638;9.876;2023-04-04T00:52:58;102981.50;;;2.88;56.16
56400;BME280;42298;53.638;9.876;2023-04-04T00:55:24;102998.88;;;2.87;55.89
56400;BME280;42298;53.638;9.876;2023-04-04T00:57:50;102990.94;;;2.86;55.39
56400;BME280;42298;53.638;9.876;2023-04-04T01:00:15;102969.69;;;2.68;56.00
56400;BME280;42298;53.638;9.876;2023-04-04T01:02:41;102957.75;;;2.63;56.83
56400;BME280;42298;53.638;9.876;2023-04-04T01:05:07;102986.31;;;2.80;56.85
56400;BME280;42298;53.638;9.876;2023-04-04T01:07:34;102978.75;;;2.75;56.85
56400;BME280;42298;53.638;9.876;2023-04-04T01:10:00;102952.09;;;2.58;56.23
56400;BME280;42298;53.638;9.876;2023-04-04T01:12:26;102953.38;;;2.62;56.89
56400;BME280;42298;53.638;9.876;2023-04-04T01:14:52;102976.25;;;2.87;58.38
56400;BME280;42298;53.638;9.876;2023-04-04T01:17:18;102969.75;;;2.88;56.37
56400;BME280;42298;53.638;9.876;2023-04-04T01:19:51;102951.94;;;2.72;56.25
56400;BME280;42298;53.638;9.876;2023-04-04T01:22:18;102948.53;;;2.57;56.55
56400;BME280;42298;53.638;9.876;2023-04-04T01:24:45;102949.75;;;2.55;57.38
56400;BME280;42298;53.638;9.876;2023-04-04T01:27:12;102934.63;;;2.33;59.64
56400;BME280;42298;53.638;9.876;2023-04-04T01:29:38;102947.66;;;2.44;59.63
56400;BME280;42298;53.638;9.876;2023-04-04T01:32:09;102957.72;;;2.56;59.13
56400;BME280;42298;53.638;9.876;2023-04-04T01:34:51;102947.72;;;2.70;58.74
56400;BME280;42298;53.638;9.876;2023-04-04T01:37:47;102948.41;;;2.78;58.61
56400;BME280;42298;53.638;9.876;2023-04-04T01:40:17;102922.16;;;2.58;56.89
56400;BME280;42298;53.638;9.876;2023-04-04T01:42:45;102938.91;;;2.61;57.12
56400;BME280;42298;53.638;9.876;2023-04-04T01:45:11;102939.38;;;2.65;57.86
56400;BME280;42298;53.638;9.876;2023-04-04T01:47:38;102939.56;;;2.70;57.32
56400;BME280;42298;53.638;9.876;2023-04-04T01:50:04;102943.53;;;2.67;57.74
56400;BME280;42298;53.638;9.876;2023-04-04T01:52:30;102945.22;;;2.68;56.99
56400;BME280;42298;53.638;9.876;2023-04-04T01:54:55;102947.31;;;2.66;56.34
56400;BME280;42298;53.638;9.876;2023-04-04T01:57:21;102930.53;;;2.56;56.68
56400;BME280;42298;53.638;9.876;2023-04-04T01:59:46;102934.94;;;2.57;56.15
56400;BME280;42298;53.638;9.876;2023-04-04T02:02:11;102932.63;;;2.61;56.39
56400;BME280;42298;53.638;9.876;2023-04-04T02:04:37;102920.06;;;2.53;57.51
56400;BME280;42298;53.638;9.876;2023-04-04T02:07:02;102920.91;;;2.54;58.05
56400;BME280;42298;53.638;9.876;2023-04-04T02:09:28;102932.22;;;2.57;57.17
56400;BME280;42298;53.638;9.876;2023-04-04T02:11:54;102928.41;;;2.52;57.94
56400;BME280;42298;53.638;9.876;2023-04-04T02:14:20;102925.69;;;2.52;57.44
56400;BME280;42298;53.638;9.876;2023-04-04T02:16:45;102924.28;;;2.56;57.40
56400;BME280;42298;53.638;9.876;2023-04-04T02:19:11;102915.25;;;2.55;57.68
56400;BME280;42298;53.638;9.876;2023-04-04T02:21:37;102909.22;;;2.60;57.51
56400;BME280;42298;53.638;9.876;2023-04-04T02:24:02;102925.16;;;2.69;56.43
56400;BME280;42298;53.638;9.876;2023-04-04T02:26:27;102902.91;;;2.53;56.08
56400;BME280;42298;53.638;9.876;2023-04-04T02:28:53;102920.94;;;2.67;57.68
56400;BME280;42298;53.638;9.876;2023-04-04T02:31:18;102925.16;;;2.76;58.09
56400;BME280;42298;53.638;9.876;2023-04-04T02:33:43;102921.63;;;2.75;57.10
56400;BME280;42298;53.638;9.876;2023-04-04T02:36:10;102894.16;;;2.64;58.32
56400;BME280;42298;53.638;9.876;2023-04-04T02:38:36;102909.88;;;2.75;58.89
56400;BME280;42298;53.638;9.876;2023-04-04T02:41:02;102917.44;;;2.86;59.33
56400;BME280;42298;53.638;9.876;2023-04-04T02:43:27;102914.72;;;2.86;59.93
56400;BME280;42298;53.638;9.876;2023-04-04T02:45:53;102907.59;;;2.85;59.91
56400;BME280;42298;53.638;9.876;2023-04-04T02:48:18;102918.88;;;2.82;60.19
56400;BME280;42298;53.638;9.876;2023-04-04T02:50:45;102923.91;;;2.78;60.35
56400;BME280;42298;53.638;9.876;2023-04-04T02:53:11;102892.47;;;2.63;60.54
56400;BME280;42298;53.638;9.876;2023-04-04T02:55:37;102911.53;;;2.76;59.85
56400;BME280;42298;53.638;9.876;2023-04-04T02:58:02;102920.16;;;2.86;59.63
56400;BME280;42298;53.638;9.876;2023-04-04T03:00:27;102921.84;;;2.87;59.64
56400;BME280;42298;53.638;9.876;2023-04-04T03:02:53;102923.09;;;2.91;59.87
56400;BME280;42298;53.638;9.876;2023-04-04T03:05:19;102899.19;;;2.73;60.39
56400;BME280;42298;53.638;9.876;2023-04-04T03:07:45;102915.56;;;2.80;60.82
56400;BME280;42298;53.638;9.876;2023-04-04T03:10:10;102924.97;;;2.84;60.78
56400;BME280;42298;53.638;9.876;2023-04-04T03:12:35;102923.50;;;2.81;60.88
56400;BME280;42298;53.638;9.876;2023-04-04T03:15:01;102916.81;;;2.84;60.58
56400;BME280;42298;53.638;9.876;2023-04-04T03:17:27;102922.28;;;2.90;60.74
56400;BME280;42298;53.638;9.876;2023-04-04T03:19:53;102905.50;;;2.87;60.37
56400;BME280;42298;53.638;9.876;2023-04-04T03:22:18;102895.66;;;2.79;60.02
56400;BME280;42298;53.638;9.876;2023-04-04T03:24:43;102910.94;;;2.87;60.10
56400;BME280;42298;53.638;9.876;2023-04-04T03:27:09;102903.41;;;2.82;60.33
56400;BME280;42298;53.638;9.876;2023-04-04T03:29:35;102895.47;;;2.87;60.13
56400;BME280;42298;53.638;9.876;2023-04-04T03:32:00;102911.38;;;2.97;59.78
56400;BME280;42298;53.638;9.876;2023-04-04T03:34:26;102912.84;;;2.93;59.99
56400;BME280;42298;53.638;9.876;2023-04-04T03:36:52;102905.13;;;2.96;60.09
56400;BME280;42298;53.638;9.876;2023-04-04T03:39:18;102899.25;;;2.99;59.70
56400;BME280;42298;53.638;9.876;2023-04-04T03:41:43;102890.69;;;3.02;59.67
56400;BME280;42298;53.638;9.876;2023-04-04T03:44:08;102882.28;;;2.97;59.51
56400;BME280;42298;53.638;9.876;2023-04-04T03:46:33;102891.28;;;3.04;59.39
56400;BME280;42298;53.638;9.876;2023-04-04T03:48:59;102906.41;;;3.20;59.20
56400;BME280;42298;53.638;9.876;2023-04-04T03:51:25;102899.91;;;3.27;58.81
56400;BME280;42298;53.638;9.876;2023-04-04T03:53:52;102901.38;;;3.30;58.79
56400;BME280;42298;53.638;9.876;2023-04-04T03:56:17;102884.19;;;3.23;58.89
56400;BME280;42298;53.638;9.876;2023-04-04T03:58:43;102890.47;;;3.36;58.75
56400;BME280;42298;53.638;9.876;2023-04-04T04:01:09;102895.50;;;3.39;58.55
56400;BME280;42298;53.638;9.876;2023-04-04T04:03:34;102889.00;;;3.34;57.51
56400;BME280;42298;53.638;9.876;2023-04-04T04:05:59;102890.25;;;3.31;57.63
56400;BME280;42298;53.638;9.876;2023-04-04T04:08:25;102888.56;;;3.37;57.98
56400;BME280;42298;53.638;9.876;2023-04-04T04:10:50;102891.31;;;3.37;58.42
56400;BME280;42298;53.638;9.876;2023-04-04T04:13:15;102889.22;;;3.39;58.37
56400;BME280;42298;53.638;9.876;2023-04-04T04:15:41;102892.78;;;3.33;59.07
56400;BME280;42298;53.638;9.876;2023-04-04T04:18:06;102876.63;;;3.25;59.15
56400;BME280;42298;53.638;9.876;2023-04-04T04:20:31;102880.41;;;3.24;59.22
56400;BME280;42298;53.638;9.876;2023-04-04T04:22:57;102885.44;;;3.27;59.21
56400;BME280;42298;53.638;9.876;2023-04-04T04:25:22;102904.94;;;3.30;59.48
56400;BME280;42298;53.638;9.876;2023-04-04T04:27:47;102888.38;;;3.32;59.38
56400;BME280;42298;53.638;9.876;2023-04-04T04:30:13;102888.16;;;3.20;58.13
56400;BME280;42298;53.638;9.876;2023-04-04T04:32:38;102890.03;;;3.13;58.65
56400;BME280;42298;53.638;9.876;2023-04-04T04:35:04;102884.81;;;3.18;58.93
56400;BME280;42298;53.638;9.876;2023-04-04T04:37:30;102870.34;;;3.11;59.31
56400;BME280;42298;53.638;9.876;2023-04-04T04:39:56;102892.16;;;3.24;59.13
56400;BME280;42298;53.638;9.876;2023-04-04T04:42:21;102888.16;;;3.27;59.14
56400;BME280;42298;53.638;9.876;2023-04-04T04:44:46;102901.78;;;3.27;58.38
56400;BME280;42298;53.638;9.876;2023-04-04T04:47:12;102895.09;;;3.23;58.26
56400;BME280;42298;53.638;9.876;2023-04-04T04:49:37;102881.03;;;3.13;58.60
56400;BME280;42298;53.638;9.876;2023-04-04T04:52:02;102894.66;;;3.19;57.61
56400;BME280;42298;53.638;9.876;2023-04-04T04:54:28;102897.56;;;3.11;58.06
56400;BME280;42298;53.638;9.876;2023-04-04T04:56:53;102897.16;;;3.14;58.89
56400;BME280;42298;53.638;9.876;2023-04-04T04:59:18;102902.41;;;3.16;59.42
56400;BME280;42298;53.638;9.876;2023-04-04T05:01:45;102873.91;;;2.99;60.22
56400;BME280;42298;53.638;9.876;2023-04-04T05:04:10;102883.56;;;3.08;58.96
56400;BME280;42298;53.638;9.876;2023-04-04T05:06:35;102879.19;;;3.07;58.08
56400;BME280;42298;53.638;9.876;2023-04-04T05:09:02;102871.63;;;2.96;58.05
56400;BME280;42298;53.638;9.876;2023-04-04T05:11:28;102891.31;;;3.11;58.34
56400;BME280;42298;53.638;9.876;2023-04-04T05:13:55;102893.41;;;3.15;59.55
56400;BME280;42298;53.638;9.876;2023-04-04T05:16:20;102883.34;;;3.16;59.48
56400;BME280;42298;53.638;9.876;2023-04-04T05:18:46;102900.53;;;3.36;59.30
56400;BME280;42298;53.638;9.876;2023-04-04T05:21:11;102862.00;;;3.26;59.08
56400;BME280;42298;53.638;9.876;2023-04-04T05:23:36;102906.78;;;3.62;59.05
56400;BME280;42298;53.638;9.876;2023-04-04T05:26:02;102904.06;;;3.69;59.26
56400;BME280;42298;53.638;9.876;2023-04-04T05:28:27;102891.47;;;3.81;59.27
56400;BME280;42298;53.638;9.876;2023-04-04T05:30:53;102874.03;;;3.95;58.54
56400;BME280;42298;53.638;9.876;2023-04-04T05:33:19;102898.16;;;4.49;57.85
56400;BME280;42298;53.638;9.876;2023-04-04T05:35:44;102883.81;;;4.60;57.37
56400;BME280;42298;53.638;9.876;2023-04-04T05:38:10;102893.53;;;4.87;56.80
56400;BME280;42298;53.638;9.876;2023-04-04T05:40:35;102887.50;;;5.09;56.52
56400;BME280;42298;53.638;9.876;2023-04-04T05:43:01;102887.53;;;5.34;55.65
56400;BME280;42298;53.638;9.876;2023-04-04T05:45:28;102901.28;;;5.70;55.43
56400;BME280;42298;53.638;9.876;2023-04-04T05:47:54;102904.78;;;6.02;54.25
56400;BME280;42298;53.638;9.876;2023-04-04T05:50:20;102891.53;;;6.17;53.02
56400;BME280;42298;53.638;9.876;2023-04-04T05:52:45;102914.00;;;6.55;52.74
56400;BME280;42298;53.638;9.876;2023-04-04T05:55:10;102889.78;;;6.70;52.26
56400;BME280;42298;53.638;9.876;2023-04-04T05:57:36;102910.31;;;7.20;51.24
56400;BME280;42298;53.638;9.876;2023-04-04T06:00:03;102889.88;;;7.80;50.75
56400;BME280;42298;53.638;9.876;2023-04-04T06:02:30;102892.66;;;8.43;48.73
56400;BME280;42298;53.638;9.876;2023-04-04T06:04:56;102876.34;;;8.92;47.35
56400;BME280;42298;53.638;9.876;2023-04-04T06:07:21;102882.00;;;9.30;46.98
56400;BME280;42298;53.638;9.876;2023-04-04T06:09:46;102908.00;;;9.56;45.51
56400;BME280;42298;53.638;9.876;2023-04-04T06:12:11;102887.25;;;9.32;45.03
56400;BME280;42298;53.638;9.876;2023-04-04T06:14:37;102890.09;;;8.92;45.75
56400;BME280;42298;53.638;9.876;2023-04-04T06:17:03;102910.13;;;8.76;46.88
56400;BME280;42298;53.638;9.876;2023-04-04T06:19:29;102919.94;;;8.72;46.90
56400;BME280;42298;53.638;9.876;2023-04-04T06:21:54;102898.25;;;8.87;46.32
56400;BME280;42298;53.638;9.876;2023-04-04T06:24:20;102891.22;;;9.24;45.19
56400;BME280;42298;53.638;9.876;2023-04-04T06:26:46;102898.97;;;9.94;44.46
56400;BME280;42298;53.638;9.876;2023-04-04T06:29:15;102911.13;;;10.14;43.71
56400;BME280;42298;53.638;9.876;2023-04-04T06:31:41;102875.25;;;10.31;43.92
56400;BME280;42298;53.638;9.876;2023-04-04T06:34:06;102881.34;;;10.54;42.27
56400;BME280;42298;53.638;9.876;2023-04-04T06:36:34;102902.16;;;10.93;41.96
56400;BME280;42298;53.638;9.876;2023-04-04T06:39:02;102890.47;;;11.39;41.64
56400;BME280;42298;53.638;9.876;2023-04-04T06:41:28;102876.41;;;11.73;40.95
56400;BME280;42298;53.638;9.876;2023-04-04T06:43:53;102912.91;;;12.26;41.22
56400;BME280;42298;53.638;9.876;2023-04-04T06:46:19;102888.09;;;12.36;39.27
56400;BME280;42298;53.638;9.876;2023-04-04T06:48:44;102888.47;;;12.55;39.30
56400;BME280;42298;53.638;9.876;2023-04-04T06:51:10;102875.53;;;12.70;39.19
56400;BME280;42298;53.638;9.876;2023-04-04T06:53:36;102886.63;;;12.85;38.25
56400;BME280;42298;53.638;9.876;2023-04-04T06:56:02;102888.66;;;13.15;39.07
56400;BME280;42298;53.638;9.876;2023-04-04T06:58:28;102867.91;;;13.32;37.49
56400;BME280;42298;53.638;9.876;2023-04-04T07:00:54;102907.22;;;13.50;36.78
56400;BME280;42298;53.638;9.876;2023-04-04T07:03:21;102862.38;;;13.37;37.21
56400;BME280;42298;53.638;9.876;2023-04-04T07:05:47;102865.41;;;13.36;37.31
56400;BME280;42298;53.638;9.876;2023-04-04T07:08:13;102864.84;;;13.24;37.47
56400;BME280;42298;53.638;9.876;2023-04-04T07:10:39;102885.34;;;13.63;37.02
56400;BME280;42298;53.638;9.876;2023-04-04T07:13:05;102857.66;;;13.58;36.60
56400;BME280;42298;53.638;9.876;2023-04-04T07:15:31;102859.31;;;13.44;36.92
56400;BME280;42298;53.638;9.876;2023-04-04T07:17:58;102883.13;;;13.45;37.23
56400;BME280;42298;53.638;9.876;2023-04-04T07:20:32;102857.09;;;13.46;35.79
56400;BME280;42298;53.638;9.876;2023-04-04T07:22:58;102877.88;;;13.59;37.13
56400;BME280;42298;53.638;9.876;2023-04-04T07:25:23;102877.28;;;13.77;35.65
56400;BME280;42298;53.638;9.876;2023-04-04T07:27:48;102862.31;;;13.78;36.10
56400;BME280;42298;53.638;9.876;2023-04-04T07:30:14;102875.31;;;14.02;34.96
56400;BME280;42298;53.638;9.876;2023-04-04T07:32:42;102869.47;;;13.99;35.08
56400;BME280;42298;53.638;9.876;2023-04-04T07:35:08;102868.91;;;13.97;34.40
56400;BME280;42298;53.638;9.876;2023-04-04T07:37:36;102866.16;;;14.07;34.49
56400;BME280;42298;53.638;9.876;2023-04-04T07:40:04;102883.31;;;14.09;33.88
56400;BME280;42298;53.638;9.876;2023-04-04T07:42:29;102861.94;;;14.19;34.56
56400;BME280;42298;53.638;9.876;2023-04-04T07:44:55;102871.91;;;14.25;32.76
56400;BME280;42298;53.638;9.876;2023-04-04T07:47:20;102860.25;;;14.28;33.26
56400;BME280;42298;53.638;9.876;2023-04-04T07:49:46;102871.53;;;14.52;32.64
56400;BME280;42298;53.638;9.876;2023-04-04T07:52:12;102886.66;;;14.74;33.60
56400;BME280;42298;53.638;9.876;2023-04-04T07:55:02;102863.97;;;14.67;32.41
56400;BME280;42298;53.638;9.876;2023-04-04T07:57:30;102858.34;;;14.77;32.94
56400;BME280;42298;53.638;9.876;2023-04-04T07:59:59;102852.19;;;14.90;31.48
56400;BME280;42298;53.638;9.876;2023-04-04T08:02:44;102843.09;;;15.18;31.61
56400;BME280;42298;53.638;9.876;2023-04-04T08:05:10;102883.94;;;15.52;30.94
56400;BME280;42298;53.638;9.876;2023-04-04T08:07:35;102844.38;;;15.31;30.53
56400;BME280;42298;53.638;9.876;2023-04-04T08:10:01;102867.44;;;15.65;30.66
56400;BME280;42298;53.638;9.876;2023-04-04T08:12:27;102869.47;;;15.83;30.28
56400;BME280;42298;53.638;9.876;2023-04-04T08:14:54;102863.25;;;15.91;29.63
56400;BME280;42298;53.638;9.876;2023-04-04T08:17:20;102846.81;;;15.71;28.64
56400;BME280;42298;53.638;9.876;2023-04-04T08:19:45;102860.75;;;15.66;29.69
56400;BME280;42298;53.638;9.876;2023-04-04T08:22:10;102862.59;;;15.47;29.73
56400;BME280;42298;53.638;9.876;2023-04-04T08:24:38;102834.00;;;15.13;29.62
56400;BME280;42298;53.638;9.876;2023-04-04T08:27:06;102867.47;;;15.26;29.70
56400;BME280;42298;53.638;9.876;2023-04-04T08:29:32;102830.41;;;14.69;30.25
56400;BME280;42298;53.638;9.876;2023-04-04T08:31:58;102846.69;;;14.32;30.69
56400;BME280;42298;53.638;9.876;2023-04-04T08:34:24;102856.03;;;14.46;30.54
56400;BME280;42298;53.638;9.876;2023-04-04T08:36:50;102851.81;;;14.58;29.57
56400;BME280;42298;53.638;9.876;2023-04-04T08:39:15;102872.09;;;15.36;29.82
56400;BME280;42298;53.638;9.876;2023-04-04T08:41:42;102837.13;;;15.35;28.89
56400;BME280;42298;53.638;9.876;2023-04-04T08:44:11;102875.75;;;14.93;28.91
56400;BME280;42298;53.638;9.876;2023-04-04T08:47:06;102837.78;;;14.83;30.57
56400;BME280;42298;53.638;9.876;2023-04-04T08:50:35;102831.56;;;14.58;31.13
56400;BME280;42298;53.638;9.876;2023-04-04T08:53:49;102836.34;;;14.91;30.25
56400;BME280;42298;53.638;9.876;2023-04-04T08:56:34;102832.31;;;15.12;29.19
56400;BME280;42298;53.638;9.876;2023-04-04T08:59:00;102822.72;;;14.56;29.19
56400;BME280;42298;53.638;9.876;2023-04-04T09:01:27;102823.41;;;14.23;30.03
56400;BME280;42298;53.638;9.876;2023-04-04T09:03:55;102819.63;;;13.99;30.11
56400;BME280;42298;53.638;9.876;2023-04-04T09:06:22;102833.25;;;13.75;29.60
56400;BME280;42298;53.638;9.876;2023-04-04T09:08:48;102860.94;;;13.80;30.04
56400;BME280;42298;53.638;9.876;2023-04-04T09:11:21;102827.38;;;13.97;29.61
56400;BME280;42298;53.638;9.876;2023-04-04T09:13:49;102811.53;;;14.12;30.07
56400;BME280;42298;53.638;9.876;2023-04-04T09:16:15;102843.78;;;14.57;29.79
56400;BME280;42298;53.638;9.876;2023-04-04T09:18:41;102816.53;;;14.69;29.67
56400;BME280;42298;53.638;9.876;2023-04-04T09:21:11;102852.28;;;15.14;30.01
56400;BME280;42298;53.638;9.876;2023-04-04T09:23:37;102835.94;;;15.07;29.71
56400;BME280;42298;53.638;9.876;2023-04-04T09:26:03;102807.38;;;15.07;29.28
56400;BME280;42298;53.638;9.876;2023-04-04T09:28:29;102813.06;;;14.87;29.47
56400;BME280;42298;53.638;9.876;2023-04-04T09:30:55;102852.31;;;14.70;29.25
56400;BME280;42298;53.638;9.876;2023-04-04T09:33:22;102807.22;;;14.50;29.74
56400;BME280;42298;53.638;9.876;2023-04-04T09:35:54;102830.56;;;14.87;28.16
56400;BME280;42298;53.638;9.876;2023-04-04T09:38:21;102787.91;;;15.12;28.39
56400;BME280;42298;53.638;9.876;2023-04-04T09:40:47;102793.91;;;15.24;28.28
56400;BME280;42298;53.638;9.876;2023-04-04T09:43:13;102805.97;;;15.43;27.85
56400;BME280;42298;53.638;9.876;2023-04-04T09:45:41;102810.50;;;14.95;27.66
56400;BME280;42298;53.638;9.876;2023-04-04T09:48:08;102810.00;;;14.88;28.60
56400;BME280;42298;53.638;9.876;2023-04-04T09:50:36;102821.97;;;14.84;27.97
56400;BME280;42298;53.638;9.876;2023-04-04T09:53:01;102791.47;;;14.40;27.13
56400;BME280;42298;53.638;9.876;2023-04-04T09:57:56;102814.97;;;14.53;26.59
56400;BME280;42298;53.638;9.876;2023-04-04T10:00:22;102823.09;;;14.34;27.48
56400;BME280;42298;53.638;9.876;2023-04-04T10:02:48;102790.28;;;13.88;27.01
56400;BME280;42298;53.638;9.876;2023-04-04T10:05:15;102817.69;;;13.89;25.91
56400;BME280;42298;53.638;9.876;2023-04-04T10:07:40;102775.09;;;13.70;26.38
56400;BME280;42298;53.638;9.876;2023-04-04T10:10:08;102800.16;;;14.14;27.29
56400;BME280;42298;53.638;9.876;2023-04-04T10:12:37;102796.84;;;14.12;26.18
56400;BME280;42298;53.638;9.876;2023-04-04T10:15:03;102776.78;;;13.66;25.96
56400;BME280;42298;53.638;9.876;2023-04-04T10:17:29;102785.44;;;13.09;26.24
56400;BME280;42298;53.638;9.876;2023-04-04T10:19:57;102815.88;;;13.34;26.91
56400;BME280;42298;53.638;9.876;2023-04-04T10:22:24;102799.28;;;13.04;26.21
56400;BME280;42298;53.638;9.876;2023-04-04T10:24:50;102813.38;;;13.13;26.97
56400;BME280;42298;53.638;9.876;2023-04-04T10:27:19;102786.25;;;13.10;26.82
56400;BME280;42298;53.638;9.876;2023-04-04T10:29:45;102809.50;;;13.04;26.68
56400;BME280;42298;53.638;9.876;2023-04-04T10:32:16;102819.19;;;13.16;27.48
56400;BME280;42298;53.638;9.876;2023-04-04T10:34:50;102802.88;;;13.20;27.91
56400;BME280;42298;53.638;9.876;2023-04-04T10:37:24;102803.97;;;13.29;27.24
56400;BME280;42298;53.638;9.876;2023-04-04T10:40:12;102795.69;;;13.09;27.38
56400;BME280;42298;53.638;9.876;2023-04-04T10:42:41;102783.50;;;13.15;28.29
56400;BME280;42298;53.638;9.876;2023-04-04T10:45:08;102776.31;;;13.04;26.31
56400;BME280;42298;53.638;9.876;2023-04-04T10:47:36;102772.97;;;12.82;26.97
56400;BME280;42298;53.638;9.876;2023-04-04T10:50:03;102789.03;;;13.00;28.26
56400;BME280;42298;53.638;9.876;2023-04-04T10:52:35;102778.53;;;13.32;27.88
56400;BME280;42298;53.638;9.876;2023-04-04T10:55:04;102756.59;;;13.51;27.54
56400;BME280;42298;53.638;9.876;2023-04-04T10:57:32;102782.00;;;13.78;26.28
56400;BME280;42298;53.638;9.876;2023-04-04T11:00:11;102792.31;;;13.57;26.84
56400;BME280;42298;53.638;9.876;2023-04-04T11:05:21;102792.09;;;13.03;26.61
56400;BME280;42298;53.638;9.876;2023-04-04T11:07:57;102747.50;;;12.60;27.38
56400;BME280;42298;53.638;9.876;2023-04-04T11:10:29;102738.94;;;12.86;27.81
56400;BME280;42298;53.638;9.876;2023-04-04T11:12:56;102774.91;;;13.26;27.36
56400;BME280;42298;53.638;9.876;2023-04-04T11:15:24;102774.03;;;13.56;27.90
56400;BME280;42298;53.638;9.876;2023-04-04T11:17:57;102743.06;;;13.34;26.60
56400;BME280;42298;53.638;9.876;2023-04-04T11:20:27;102774.88;;;13.57;27.92
56400;BME280;42298;53.638;9.876;2023-04-04T11:23:07;102736.66;;;13.54;27.00
56400;BME280;42298;53.638;9.876;2023-04-04T11:25:37;102749.06;;;13.76;26.91
56400;BME280;42298;53.638;9.876;2023-04-04T11:28:04;102718.88;;;13.75;27.07
56400;BME280;42298;53.638;9.876;2023-04-04T11:30:39;102715.81;;;13.76;27.49
56400;BME280;42298;53.638;9.876;2023-04-04T11:33:24;102745.66;;;13.99;25.77
56400;BME280;42298;53.638;9.876;2023-04-04T11:35:57;102706.88;;;13.89;26.07
56400;BME280;42298;53.638;9.876;2023-04-04T11:38:25;102712.16;;;13.91;26.29
56400;BME280;42298;53.638;9.876;2023-04-04T11:40:52;102726.78;;;14.01;26.78
56400;BME280;42298;53.638;9.876;2023-04-04T11:43:20;102716.06;;;13.85;26.60
56400;BME280;42298;53.638;9.876;2023-04-04T11:45:47;102724.13;;;13.81;26.51
56400;BME280;42298;53.638;9.876;2023-04-04T11:48:17;102719.75;;;13.60;26.51
56400;BME280;42298;53.638;9.876;2023-04-04T11:50:45;102715.88;;;13.61;26.63
56400;BME280;42298;53.638;9.876;2023-04-04T11:53:14;102690.84;;;13.12;26.70
56400;BME280;42298;53.638;9.876;2023-04-04T11:55:44;102701.63;;;13.14;27.29
56400;BME280;42298;53.638;9.876;2023-04-04T11:58:15;102719.34;;;13.03;26.26
56400;BME280;42298;53.638;9.876;2023-04-04T12:00:42;102696.34;;;13.02;27.00
56400;BME280;42298;53.638;9.876;2023-04-04T12:03:10;102726.44;;;13.54;26.80
56400;BME280;42298;53.638;9.876;2023-04-04T12:05:42;102707.00;;;13.69;26.34
56400;BME280;42298;53.638;9.876;2023-04-04T12:08:10;102690.97;;;13.56;26.55
56400;BME280;42298;53.638;9.876;2023-04-04T12:10:38;102714.47;;;13.64;27.17
56400;BME280;42298;53.638;9.876;2023-04-04T12:13:07;102697.38;;;13.36;27.03
56400;BME280;42298;53.638;9.876;2023-04-04T12:15:34;102676.44;;;13.10;27.67
56400;BME280;42298;53.638;9.876;2023-04-04T12:18:00;102716.81;;;13.21;27.57
56400;BME280;42298;53.638;9.876;2023-04-04T12:20:26;102709.63;;;13.20;27.14
56400;BME280;42298;53.638;9.876;2023-04-04T12:22:52;102704.34;;;13.29;26.97
56400;BME280;42298;53.638;9.876;2023-04-04T12:25:20;102662.06;;;13.13;27.56
56400;BME280;42298;53.638;9.876;2023-04-04T12:27:46;102663.16;;;12.97;27.29
56400;BME280;42298;53.638;9.876;2023-04-04T12:30:13;102686.09;;;13.23;27.84
56400;BME280;42298;53.638;9.876;2023-04-04T12:32:44;102659.25;;;13.23;27.63
56400;BME280;42298;53.638;9.876;2023-04-04T12:35:10;102670.16;;;13.64;27.31
56400;BME280;42298;53.638;9.876;2023-04-04T12:38:02;102683.84;;;13.99;26.94
56400;BME280;42298;53.638;9.876;2023-04-04T12:40:31;102662.19;;;14.06;27.24
56400;BME280;42298;53.638;9.876;2023-04-04T12:42:58;102666.00;;;14.15;25.96
56400;BME280;42298;53.638;9.876;2023-04-04T12:45:25;102680.50;;;14.07;25.39
56400;BME280;42298;53.638;9.876;2023-04-04T12:47:53;102658.91;;;14.04;25.82
56400;BME280;42298;53.638;9.876;2023-04-04T12:50:27;102649.19;;;14.01;26.27
56400;BME280;42298;53.638;9.876;2023-04-04T12:52:53;102647.06;;;13.93;25.81
56400;BME280;42298;53.638;9.876;2023-04-04T12:55:21;102652.06;;;13.86;25.76
56400;BME280;42298;53.638;9.876;2023-04-04T12:57:47;102640.75;;;13.78;25.92
56400;BME280;42298;53.638;9.876;2023-04-04T13:00:13;102644.72;;;13.62;25.68
56400;BME280;42298;53.638;9.876;2023-04-04T13:02:44;102637.78;;;13.59;25.43